Time;durP1;ratioP1;P1;durP2;ratioP2;P2;SDS_P1;SDS_P2;PMS_P1;PMS_P2;Temp;Humidity;BMP_temperature;BMP_pressure;BME280_temperature;BME280_humidity;BME280_pressure;Samples;Min_cycle;Max_cycle;Signal;HPM_P1;HPM_P2
2023/07/23 00:00:47;;;;;;;4.22;3.83;;;;;;;;;;5152554;27;20225;-61
2023/07/23 00:03:14;;;;;;;3.85;3.65;;;;;;;;;;5151205;27;20224;-61
2023/07/23 00:05:40;;;;;;;3.90;3.60;;;;;;;;;;5152747;27;20502;-61
2023/07/23 00:08:06;;;;;;;3.83;3.53;;;;;;;;;;5155067;27;20216;-61
2023/07/23 00:10:33;;;;;;;3.50;3.30;;;;;;;;;;5154813;27;20238;-61
2023/07/23 00:13:00;;;;;;;4.63;3.50;;;;;;;;;;5151120;27;20198;-61
2023/07/23 00:15:27;;;;;;;3.85;3.58;;;;;;;;;;5151625;27;20511;-61
2023/07/23 00:17:53;;;;;;;3.95;3.60;;;;;;;;;;5154336;27;20382;-61
2023/07/23 00:20:19;;;;;;;3.85;3.50;;;;;;;;;;5154860;27;20226;-61
2023/07/23 00:22:45;;;;;;;4.00;3.70;;;;;;;;;;5152835;27;20391;-61
2023/07/23 00:25:12;;;;;;;4.13;3.30;;;;;;;;;;5151234;27;20488;-61
2023/07/23 00:27:38;;;;;;;4.00;3.70;;;;;;;;;;5152052;27;20453;-61
2023/07/23 00:30:06;;;;;;;4.63;3.50;;;;;;;;;;5155004;27;20556;-61
2023/07/23 00:32:33;;;;;;;3.80;3.60;;;;;;;;;;5154517;27;20197;-61
2023/07/23 00:34:59;;;;;;;5.00;3.20;;;;;;;;;;5154892;27;20395;-61
2023/07/23 00:37:27;;;;;;;4.13;3.55;;;;;;;;;;5158812;27;20205;-61
2023/07/23 00:39:53;;;;;;;4.60;3.40;;;;;;;;;;5155713;27;20197;-61
2023/07/23 00:42:19;;;;;;;3.92;3.63;;;;;;;;;;5155006;27;20225;-61
2023/07/23 00:44:45;;;;;;;3.50;3.30;;;;;;;;;;5156745;27;20397;-61
2023/07/23 00:47:13;;;;;;;4.20;3.90;;;;;;;;;;5158783;27;20386;-61
2023/07/23 00:49:39;;;;;;;4.30;3.85;;;;;;;;;;5157648;27;20226;-61
2023/07/23 00:52:07;;;;;;;4.10;3.80;;;;;;;;;;5154756;27;20190;-61
2023/07/23 00:54:34;;;;;;;4.18;3.53;;;;;;;;;;5154830;27;20206;-61
2023/07/23 00:57:01;;;;;;;3.95;3.33;;;;;;;;;;5146626;27;20194;-61
2023/07/23 00:59:30;;;;;;;3.65;3.35;;;;;;;;;;5154730;27;20471;-61
2023/07/23 01:01:57;;;;;;;6.35;4.15;;;;;;;;;;5157416;27;20214;-61
2023/07/23 01:04:24;;;;;;;4.15;3.63;;;;;;;;;;5158319;27;20383;-61
2023/07/23 01:06:51;;;;;;;6.00;3.67;;;;;;;;;;5155887;27;20205;-61
2023/07/23 01:09:19;;;;;;;3.90;3.60;;;;;;;;;;5154412;27;20194;-61
2023/07/23 01:11:46;;;;;;;3.80;3.58;;;;;;;;;;5155779;27;20263;-61
2023/07/23 01:14:12;;;;;;;4.25;3.95;;;;;;;;;;5158152;27;20247;-61
2023/07/23 01:16:39;;;;;;;4.30;3.85;;;;;;;;;;5157598;27;20205;-61
2023/07/23 01:19:06;;;;;;;5.43;3.40;;;;;;;;;;5154413;27;20194;-61
2023/07/23 01:21:33;;;;;;;4.25;3.85;;;;;;;;;;5153888;27;20476;-61
2023/07/23 01:24:01;;;;;;;4.05;3.35;;;;;;;;;;5157811;27;20216;-61
2023/07/23 01:26:27;;;;;;;4.18;3.88;;;;;;;;;;5157963;27;20211;-61
2023/07/23 01:28:54;;;;;;;4.85;3.67;;;;;;;;;;5155238;27;20224;-61
2023/07/23 01:31:20;;;;;;;6.15;3.28;;;;;;;;;;5153995;27;20202;-61
2023/07/23 01:33:46;;;;;;;4.13;3.78;;;;;;;;;;5154922;27;20525;-61
2023/07/23 01:36:14;;;;;;;4.35;3.40;;;;;;;;;;5157818;27;20235;-61
2023/07/23 01:38:40;;;;;;;3.80;3.60;;;;;;;;;;5156959;27;20269;-61
2023/07/23 01:41:08;;;;;;;3.55;3.35;;;;;;;;;;5153679;27;20556;-61
2023/07/23 01:43:34;;;;;;;4.68;3.58;;;;;;;;;;5153956;27;20247;-61
2023/07/23 01:46:00;;;;;;;3.70;3.08;;;;;;;;;;5156867;27;20200;-61
2023/07/23 01:48:27;;;;;;;4.00;3.70;;;;;;;;;;5157251;27;20198;-61
2023/07/23 01:50:53;;;;;;;4.78;3.70;;;;;;;;;;5155290;27;20205;-61
2023/07/23 01:53:19;;;;;;;3.95;3.58;;;;;;;;;;5153462;27;20201;-61
2023/07/23 01:55:45;;;;;;;4.05;3.67;;;;;;;;;;5154783;27;20514;-61
2023/07/23 01:58:13;;;;;;;8.07;3.95;;;;;;;;;;5157227;27;20200;-62
2023/07/23 02:00:39;;;;;;;5.40;3.67;;;;;;;;;;5156672;27;20268;-61
2023/07/23 02:03:06;;;;;;;3.83;3.47;;;;;;;;;;5153315;27;20194;-62
2023/07/23 02:06:03;;;;;;;7.50;4.10;;;;;;;;;;5153662;27;20204;-62
2023/07/23 02:08:30;;;;;;;4.13;3.72;;;;;;;;;;5148323;27;20206;-61
2023/07/23 02:11:00;;;;;;;4.72;3.85;;;;;;;;;;5155691;27;20194;-62
2023/07/23 02:13:28;;;;;;;4.72;3.67;;;;;;;;;;5156878;27;20198;-62
2023/07/23 02:15:54;;;;;;;5.22;3.40;;;;;;;;;;5154666;27;20235;-62
2023/07/23 02:18:21;;;;;;;4.32;3.15;;;;;;;;;;5153246;27;20198;-62
2023/07/23 02:20:47;;;;;;;4.13;3.72;;;;;;;;;;5153881;27;20304;-62
2023/07/23 02:23:14;;;;;;;4.00;3.70;;;;;;;;;;5156691;27;20206;-62
2023/07/23 02:25:41;;;;;;;4.00;3.70;;;;;;;;;;5156657;27;20197;-62
2023/07/23 02:28:09;;;;;;;6.53;3.40;;;;;;;;;;5153085;27;20214;-62
2023/07/23 02:30:36;;;;;;;3.53;3.33;;;;;;;;;;5153011;27;20411;-62
2023/07/23 02:33:03;;;;;;;3.80;3.50;;;;;;;;;;5155842;27;20415;-62
2023/07/23 02:35:29;;;;;;;3.17;2.97;;;;;;;;;;5156402;27;20201;-62
2023/07/23 02:37:55;;;;;;;3.55;3.35;;;;;;;;;;5154189;27;20219;-61
2023/07/23 02:40:21;;;;;;;3.45;3.22;;;;;;;;;;5152728;27;20198;-62
2023/07/23 02:42:48;;;;;;;3.00;2.80;;;;;;;;;;5152324;27;20224;-62
2023/07/23 02:45:15;;;;;;;3.40;3.10;;;;;;;;;;5152729;27;20198;-62
2023/07/23 02:47:42;;;;;;;6.00;3.20;;;;;;;;;;5152818;27;20202;-61
2023/07/23 02:50:09;;;;;;;4.40;3.20;;;;;;;;;;5144463;27;20232;-62
2023/07/23 02:52:35;;;;;;;3.20;2.95;;;;;;;;;;5152821;27;20195;-62
2023/07/23 02:55:01;;;;;;;3.53;3.22;;;;;;;;;;5155539;27;20198;-61
2023/07/23 02:57:27;;;;;;;3.17;2.97;;;;;;;;;;5156392;27;20278;-61
2023/07/23 02:59:54;;;;;;;4.60;3.47;;;;;;;;;;5153872;27;20438;-62
2023/07/23 03:02:20;;;;;;;2.72;2.63;;;;;;;;;;5152354;27;20407;-61
2023/07/23 03:04:48;;;;;;;5.38;3.67;;;;;;;;;;5152907;27;20439;-61
2023/07/23 03:07:14;;;;;;;3.35;3.05;;;;;;;;;;5156163;27;20194;-62
2023/07/23 03:09:40;;;;;;;3.35;3.15;;;;;;;;;;5156139;27;20197;-62
2023/07/23 03:12:09;;;;;;;3.92;3.35;;;;;;;;;;5155768;27;20197;-62
2023/07/23 03:14:36;;;;;;;7.15;3.70;;;;;;;;;;5155918;27;20261;-61
2023/07/23 03:17:02;;;;;;;3.60;3.25;;;;;;;;;;5153046;27;20239;-61
2023/07/23 03:19:28;;;;;;;4.00;3.70;;;;;;;;;;5152330;27;20243;-62
2023/07/23 03:21:56;;;;;;;3.40;3.10;;;;;;;;;;5153572;27;20226;-62
2023/07/23 03:24:22;;;;;;;6.88;3.60;;;;;;;;;;5155882;27;20201;-61
2023/07/23 03:26:48;;;;;;;3.58;3.28;;;;;;;;;;5154747;27;20201;-62
2023/07/23 03:29:14;;;;;;;4.00;3.45;;;;;;;;;;5152272;27;20198;-61
2023/07/23 03:31:41;;;;;;;3.58;3.10;;;;;;;;;;5160585;27;20194;-62
2023/07/23 03:34:07;;;;;;;4.00;3.42;;;;;;;;;;5152094;27;20232;-62
2023/07/23 03:36:33;;;;;;;3.25;2.95;;;;;;;;;;5151927;27;20198;-62
2023/07/23 03:39:01;;;;;;;4.97;3.63;;;;;;;;;;5154279;27;20202;-61
2023/07/23 03:41:27;;;;;;;3.40;3.20;;;;;;;;;;5155334;27;20225;-62
2023/07/23 03:43:53;;;;;;;4.05;3.67;;;;;;;;;;5154160;27;20235;-61
2023/07/23 03:46:19;;;;;;;4.03;3.78;;;;;;;;;;5151664;27;20198;-62
2023/07/23 03:48:47;;;;;;;4.45;3.92;;;;;;;;;;5151765;27;20219;-62
2023/07/23 03:51:14;;;;;;;5.55;3.92;;;;;;;;;;5155157;27;20502;-62
2023/07/23 03:53:41;;;;;;;5.07;3.65;;;;;;;;;;5155410;27;20205;-62
2023/07/23 03:56:08;;;;;;;4.32;3.92;;;;;;;;;;5152162;27;20198;-62
2023/07/23 03:58:34;;;;;;;4.72;3.97;;;;;;;;;;5151818;27;20205;-62
2023/07/23 04:01:01;;;;;;;3.88;3.55;;;;;;;;;;5153545;27;20214;-61
2023/07/23 04:03:27;;;;;;;5.43;3.60;;;;;;;;;;5155153;27;20217;-62
2023/07/23 04:05:53;;;;;;;5.40;3.65;;;;;;;;;;5153902;27;20219;-62
2023/07/23 04:08:19;;;;;;;3.95;3.65;;;;;;;;;;5151526;27;20232;-62
2023/07/23 04:10:46;;;;;;;3.53;3.30;;;;;;;;;;5152833;27;20198;-62
2023/07/23 04:13:13;;;;;;;3.75;3.35;;;;;;;;;;5147172;27;20190;-61
2023/07/23 04:15:39;;;;;;;3.83;3.33;;;;;;;;;;5155564;27;20206;-62
2023/07/23 04:18:12;;;;;;;4.18;3.78;;;;;;;;;;5158603;27;20432;-62
2023/07/23 04:20:38;;;;;;;3.40;3.13;;;;;;;;;;5159304;27;20197;-61
2023/07/23 04:23:05;;;;;;;3.90;3.05;;;;;;;;;;5156253;27;20209;-62
2023/07/23 04:25:31;;;;;;;3.85;3.60;;;;;;;;;;5155557;27;20199;-62
2023/07/23 04:27:57;;;;;;;4.47;3.33;;;;;;;;;;5156597;27;20255;-61
2023/07/23 04:30:25;;;;;;;3.40;3.15;;;;;;;;;;5159240;27;20205;-62
2023/07/23 04:32:52;;;;;;;3.67;3.38;;;;;;;;;;5158113;27;20202;-61
2023/07/23 04:35:18;;;;;;;3.75;3.47;;;;;;;;;;5155484;27;20194;-62
2023/07/23 04:37:45;;;;;;;3.30;2.92;;;;;;;;;;5155448;27;20229;-62
2023/07/23 04:40:11;;;;;;;3.25;3.05;;;;;;;;;;5158584;27;20239;-62
2023/07/23 04:42:38;;;;;;;3.20;3.00;;;;;;;;;;5158399;27;20262;-62
2023/07/23 04:45:04;;;;;;;3.60;3.40;;;;;;;;;;5156515;27;20197;-62
2023/07/23 04:47:32;;;;;;;3.88;3.55;;;;;;;;;;5155236;27;20198;-62
2023/07/23 04:49:58;;;;;;;3.30;3.08;;;;;;;;;;5156449;27;20213;-61
2023/07/23 04:52:24;;;;;;;3.65;3.45;;;;;;;;;;5158777;27;20238;-62
2023/07/23 04:54:51;;;;;;;4.53;4.10;;;;;;;;;;5158561;27;20204;-62
2023/07/23 04:57:17;;;;;;;3.58;3.28;;;;;;;;;;5154881;27;20202;-61
2023/07/23 04:59:43;;;;;;;4.13;3.92;;;;;;;;;;5155022;27;20365;-61
2023/07/23 05:02:10;;;;;;;4.13;3.75;;;;;;;;;;5157638;27;20255;-61
2023/07/23 05:04:37;;;;;;;7.10;3.72;;;;;;;;;;5158407;27;20197;-61
2023/07/23 05:07:04;;;;;;;5.28;4.05;;;;;;;;;;5156203;27;20205;-61
2023/07/23 05:09:30;;;;;;;3.85;3.50;;;;;;;;;;5154583;27;20199;-61
2023/07/23 05:11:56;;;;;;;3.35;3.05;;;;;;;;;;5155202;27;20195;-61
2023/07/23 05:14:22;;;;;;;4.15;3.75;;;;;;;;;;5158311;27;20208;-62
2023/07/23 05:16:49;;;;;;;4.05;3.67;;;;;;;;;;5158231;27;20238;-62
2023/07/23 05:19:15;;;;;;;3.78;3.47;;;;;;;;;;5158084;27;20193;-62
2023/07/23 05:21:42;;;;;;;4.00;3.75;;;;;;;;;;5157271;27;20201;-62
2023/07/23 05:24:09;;;;;;;3.35;3.08;;;;;;;;;;5155103;27;20235;-62
2023/07/23 05:26:35;;;;;;;3.60;3.30;;;;;;;;;;5154562;27;20502;-62
2023/07/23 05:29:01;;;;;;;3.45;3.15;;;;;;;;;;5155828;27;20245;-62
2023/07/23 05:31:27;;;;;;;2.75;2.55;;;;;;;;;;5157715;27;20202;-62
2023/07/23 05:33:54;;;;;;;3.55;3.25;;;;;;;;;;5157287;27;20194;-62
2023/07/23 05:36:20;;;;;;;3.13;2.92;;;;;;;;;;5154222;27;20201;-62
2023/07/23 05:38:47;;;;;;;3.60;3.25;;;;;;;;;;5154160;27;20498;-62
2023/07/23 05:41:14;;;;;;;4.20;3.30;;;;;;;;;;5157409;27;20374;-62
2023/07/23 05:43:40;;;;;;;3.55;3.35;;;;;;;;;;5157734;27;20225;-62
2023/07/23 05:46:06;;;;;;;3.60;3.20;;;;;;;;;;5155423;27;20205;-61
2023/07/23 05:48:33;;;;;;;4.03;3.00;;;;;;;;;;5153912;27;20205;-62
2023/07/23 05:50:59;;;;;;;3.85;3.25;;;;;;;;;;5154780;27;20206;-62
2023/07/23 05:53:25;;;;;;;4.30;3.15;;;;;;;;;;5157484;27;20197;-62
2023/07/23 05:55:53;;;;;;;3.83;3.55;;;;;;;;;;5157739;27;20498;-62
2023/07/23 05:58:19;;;;;;;3.50;3.20;;;;;;;;;;5145953;27;20746;-62
2023/07/23 06:00:45;;;;;;;3.60;3.30;;;;;;;;;;5153945;27;20571;-62
2023/07/23 06:03:11;;;;;;;3.53;3.22;;;;;;;;;;5156178;27;20226;-62
2023/07/23 06:05:38;;;;;;;3.45;3.08;;;;;;;;;;5157114;27;20498;-62
2023/07/23 06:08:04;;;;;;;4.30;3.15;;;;;;;;;;5155141;27;20205;-62
2023/07/23 06:10:31;;;;;;;3.45;3.15;;;;;;;;;;5153599;27;20202;-62
2023/07/23 06:12:59;;;;;;;3.80;3.10;;;;;;;;;;5153688;27;20210;-62
2023/07/23 06:15:25;;;;;;;3.40;3.20;;;;;;;;;;5157019;27;20197;-62
2023/07/23 06:17:51;;;;;;;3.70;3.40;;;;;;;;;;5157077;27;20523;-62
2023/07/23 06:20:18;;;;;;;6.97;3.08;;;;;;;;;;5153329;27;20195;-62
2023/07/23 06:22:44;;;;;;;3.03;2.83;;;;;;;;;;5153300;27;20541;-62
2023/07/23 06:25:10;;;;;;;3.35;3.15;;;;;;;;;;5155859;27;20234;-62
2023/07/23 06:27:37;;;;;;;3.00;2.80;;;;;;;;;;5156733;27;20222;-62
2023/07/23 06:30:05;;;;;;;3.30;3.10;;;;;;;;;;5155492;27;20202;-62
2023/07/23 06:32:31;;;;;;;2.95;2.80;;;;;;;;;;5152718;27;20510;-62
2023/07/23 06:34:57;;;;;;;3.30;3.00;;;;;;;;;;5152851;27;20516;-62
2023/07/23 06:37:24;;;;;;;3.03;2.72;;;;;;;;;;5156948;27;20524;-62
2023/07/23 06:39:50;;;;;;;3.15;2.95;;;;;;;;;;5156869;27;20424;-62
2023/07/23 06:42:16;;;;;;;2.60;2.40;;;;;;;;;;5153017;27;20222;-62
2023/07/23 06:44:42;;;;;;;3.17;2.90;;;;;;;;;;5152958;27;20251;-62
2023/07/23 06:47:11;;;;;;;2.90;2.70;;;;;;;;;;5155053;27;20260;-62
2023/07/23 06:49:38;;;;;;;3.20;2.90;;;;;;;;;;5156837;27;20197;-62
2023/07/23 06:52:04;;;;;;;3.00;2.90;;;;;;;;;;5155135;27;20501;-62
2023/07/23 06:54:32;;;;;;;2.70;2.60;;;;;;;;;;5152767;27;20198;-62
2023/07/23 06:56:59;;;;;;;4.30;3.00;;;;;;;;;;5153248;27;20205;-62
2023/07/23 06:59:25;;;;;;;4.40;2.20;;;;;;;;;;5156312;27;20198;-62
2023/07/23 07:01:51;;;;;;;2.95;2.78;;;;;;;;;;5156239;27;20214;-62
2023/07/23 07:04:19;;;;;;;3.20;3.00;;;;;;;;;;5152929;27;20221;-62
2023/07/23 07:06:45;;;;;;;3.08;2.78;;;;;;;;;;5152931;27;20198;-62
2023/07/23 07:09:12;;;;;;;5.65;2.60;;;;;;;;;;5154880;27;20244;-62
2023/07/23 07:11:38;;;;;;;2.63;2.47;;;;;;;;;;5155849;27;20238;-62
2023/07/23 07:14:04;;;;;;;4.22;2.63;;;;;;;;;;5154761;27;20234;-62
2023/07/23 07:16:31;;;;;;;2.58;2.45;;;;;;;;;;5152310;27;20247;-57
2023/07/23 07:18:57;;;;;;;2.70;2.30;;;;;;;;;;5152117;27;20202;-55
2023/07/23 07:21:25;;;;;;;2.90;2.30;;;;;;;;;;5155755;27;20505;-56
2023/07/23 07:23:51;;;;;;;2.40;2.10;;;;;;;;;;5155596;27;20585;-55
2023/07/23 07:26:17;;;;;;;1.95;1.85;;;;;;;;;;5152590;27;20510;-57
2023/07/23 07:28:43;;;;;;;2.20;2.10;;;;;;;;;;5151868;27;20455;-56
2023/07/23 07:31:12;;;;;;;2.35;2.05;;;;;;;;;;5153270;27;20202;-57
2023/07/23 07:33:38;;;;;;;2.95;2.60;;;;;;;;;;5154361;27;20427;-62
2023/07/23 07:36:05;;;;;;;2.20;2.10;;;;;;;;;;5154376;27;20201;-62
2023/07/23 07:38:32;;;;;;;2.10;2.00;;;;;;;;;;5152071;27;20469;-62
2023/07/23 07:41:00;;;;;;;2.17;1.98;;;;;;;;;;5151840;27;20236;-62
2023/07/23 07:43:26;;;;;;;1.95;1.85;;;;;;;;;;5155138;27;20241;-62
2023/07/23 07:45:54;;;;;;;1.85;1.58;;;;;;;;;;5155006;27;20197;-62
2023/07/23 07:48:20;;;;;;;3.58;2.10;;;;;;;;;;5152193;27;20205;-62
2023/07/23 07:50:48;;;;;;;4.55;2.10;;;;;;;;;;5151448;27;20235;-62
2023/07/23 07:53:14;;;;;;;2.05;1.80;;;;;;;;;;5153616;27;20566;-62
2023/07/23 07:55:42;;;;;;;2.05;1.92;;;;;;;;;;5155246;27;20221;-62
2023/07/23 07:58:12;;;;;;;1.60;1.60;;;;;;;;;;5153670;27;20238;-62
2023/07/23 08:00:39;;;;;;;1.67;1.58;;;;;;;;;;5151637;27;20229;-62
2023/07/23 08:03:05;;;;;;;2.20;2.05;;;;;;;;;;5152151;27;20416;-62
2023/07/23 08:05:32;;;;;;;2.45;1.52;;;;;;;;;;5155080;27;20197;-62
2023/07/23 08:07:58;;;;;;;3.20;1.63;;;;;;;;;;5154954;27;20189;-62
2023/07/23 08:10:25;;;;;;;1.88;1.77;;;;;;;;;;5156097;27;20197;-62
2023/07/23 08:12:53;;;;;;;3.80;1.95;;;;;;;;;;5154538;27;20193;-62
2023/07/23 08:15:19;;;;;;;3.88;2.10;;;;;;;;;;5152353;27;20497;-62
2023/07/23 08:17:46;;;;;;;1.60;1.60;;;;;;;;;;5158179;27;20497;-62
2023/07/23 08:20:13;;;;;;;1.90;1.80;;;;;;;;;;5153180;27;20205;-62
2023/07/23 08:22:39;;;;;;;1.63;1.63;;;;;;;;;;5148065;27;20269;-62
2023/07/23 08:25:07;;;;;;;1.60;1.50;;;;;;;;;;5154047;27;20201;-62
2023/07/23 08:27:34;;;;;;;1.88;1.80;;;;;;;;;;5151320;27;20217;-62
2023/07/23 08:30:02;;;;;;;3.55;1.67;;;;;;;;;;5151546;27;20198;-62
2023/07/23 08:32:29;;;;;;;1.67;1.58;;;;;;;;;;5143172;27;20228;-62
2023/07/23 08:34:56;;;;;;;1.95;1.88;;;;;;;;;;5151386;27;20532;-62
2023/07/23 08:37:23;;;;;;;2.10;2.00;;;;;;;;;;5154446;27;20225;-62
2023/07/23 08:39:49;;;;;;;4.82;2.00;;;;;;;;;;5154747;27;20558;-62
2023/07/23 08:42:37;;;;;;;4.18;1.90;;;;;;;;;;5152281;27;20201;-62
2023/07/23 08:45:30;;;;;;;1.77;1.77;;;;;;;;;;5151566;27;20202;-62
2023/07/23 08:48:01;;;;;;;2.22;1.92;;;;;;;;;;5116867;27;20197;-62
2023/07/23 08:50:28;;;;;;;1.70;1.70;;;;;;;;;;5142819;27;20509;-62
2023/07/23 08:52:54;;;;;;;2.67;1.70;;;;;;;;;;5151155;27;20243;-62
2023/07/23 08:55:20;;;;;;;1.90;1.80;;;;;;;;;;5153480;27;20202;-62
2023/07/23 08:57:47;;;;;;;1.98;1.85;;;;;;;;;;5157497;27;20197;-62
2023/07/23 09:00:13;;;;;;;1.85;1.77;;;;;;;;;;5156704;27;20208;-62
2023/07/23 09:02:41;;;;;;;2.00;1.90;;;;;;;;;;5154471;27;20505;-62
2023/07/23 09:05:09;;;;;;;2.00;1.75;;;;;;;;;;5155738;27;20242;-62
2023/07/23 09:07:35;;;;;;;1.95;1.83;;;;;;;;;;5158454;27;20546;-62
2023/07/23 09:10:02;;;;;;;1.52;1.42;;;;;;;;;;5158197;27;20434;-62
2023/07/23 09:12:29;;;;;;;2.67;1.70;;;;;;;;;;5157922;27;20273;-62
2023/07/23 09:14:55;;;;;;;1.75;1.70;;;;;;;;;;5158024;27;20196;-62
2023/07/23 09:17:21;;;;;;;2.88;1.90;;;;;;;;;;5155151;27;20199;-62
2023/07/23 09:19:48;;;;;;;2.10;1.77;;;;;;;;;;5154427;27;20498;-62
2023/07/23 09:22:18;;;;;;;1.90;1.88;;;;;;;;;;5155935;27;20400;-62
2023/07/23 09:24:44;;;;;;;1.77;1.60;;;;;;;;;;5157899;27;20236;-62
2023/07/23 09:27:11;;;;;;;1.80;1.70;;;;;;;;;;5156893;27;20484;-62
2023/07/23 09:29:38;;;;;;;1.60;1.60;;;;;;;;;;5154192;27;20231;-62
2023/07/23 09:32:04;;;;;;;2.78;2.08;;;;;;;;;;5153833;27;20231;-62
2023/07/23 09:34:31;;;;;;;2.72;1.55;;;;;;;;;;5157734;27;20265;-62
2023/07/23 09:36:57;;;;;;;2.60;1.45;;;;;;;;;;5158239;27;20197;-62
2023/07/23 09:39:26;;;;;;;1.45;1.45;;;;;;;;;;5154851;27;20201;-62
2023/07/23 09:41:52;;;;;;;1.98;1.88;;;;;;;;;;5153922;27;20194;-62
2023/07/23 09:44:18;;;;;;;1.60;1.50;;;;;;;;;;5155833;27;20225;-62
2023/07/23 09:46:45;;;;;;;2.30;1.60;;;;;;;;;;5160301;27;20194;-64
2023/07/23 09:49:12;;;;;;;1.40;1.40;;;;;;;;;;5155102;27;20424;-62
2023/07/23 09:51:38;;;;;;;1.42;1.40;;;;;;;;;;5157227;27;20201;-62
2023/07/23 09:54:05;;;;;;;2.67;1.08;;;;;;;;;;5157503;27;20497;-62
2023/07/23 09:56:33;;;;;;;1.27;1.20;;;;;;;;;;5145819;27;20194;-63
2023/07/23 09:59:00;;;;;;;1.15;1.15;;;;;;;;;;5153781;27;20568;-62
2023/07/23 10:01:27;;;;;;;2.35;1.20;;;;;;;;;;5156141;27;20440;-62
2023/07/23 10:03:54;;;;;;;4.15;1.40;;;;;;;;;;5157425;27;20529;-62
2023/07/23 10:06:23;;;;;;;1.88;1.50;;;;;;;;;;5155000;27;20199;-62
2023/07/23 10:08:50;;;;;;;3.35;1.13;;;;;;;;;;5152008;27;20256;-62
2023/07/23 10:11:17;;;;;;;1.00;1.00;;;;;;;;;;5154614;27;20197;-62
2023/07/23 10:13:47;;;;;;;1.10;1.10;;;;;;;;;;5156835;27;20531;-62
2023/07/23 10:16:16;;;;;;;2.10;1.10;;;;;;;;;;5156400;27;20569;-62
2023/07/23 10:18:44;;;;;;;2.90;1.45;;;;;;;;;;5153503;27;20235;-62
2023/07/23 10:21:10;;;;;;;1.35;1.25;;;;;;;;;;5153471;27;20198;-62
2023/07/23 10:23:38;;;;;;;2.90;1.52;;;;;;;;;;5156634;27;20205;-62
2023/07/23 10:26:21;;;;;;;2.58;1.30;;;;;;;;;;5156770;27;20624;-62
2023/07/23 10:28:48;;;;;;;1.65;1.55;;;;;;;;;;5146819;27;20213;-62
2023/07/23 10:31:19;;;;;;;3.35;1.30;;;;;;;;;;5153805;27;20202;-62
2023/07/23 10:33:45;;;;;;;2.40;1.60;;;;;;;;;;5156685;27;20189;-62
2023/07/23 10:36:12;;;;;;;1.38;1.35;;;;;;;;;;5155387;27;20200;-62
2023/07/23 10:38:38;;;;;;;1.33;1.33;;;;;;;;;;5152790;27;20193;-61
2023/07/23 10:41:05;;;;;;;2.45;1.40;;;;;;;;;;5147965;27;20209;-62
2023/07/23 10:43:41;;;;;;;1.42;1.42;;;;;;;;;;5146594;27;20220;-62
2023/07/23 10:46:10;;;;;;;3.03;1.75;;;;;;;;;;5137837;27;20197;-62
2023/07/23 10:48:40;;;;;;;2.15;1.63;;;;;;;;;;5133372;27;20378;-62
2023/07/23 10:51:09;;;;;;;1.67;1.60;;;;;;;;;;5137111;27;20195;-62
2023/07/23 10:53:38;;;;;;;2.03;1.92;;;;;;;;;;5133135;27;20190;-62
2023/07/23 10:56:20;;;;;;;3.88;2.00;;;;;;;;;;5137318;27;20506;-62
2023/07/23 10:58:46;;;;;;;2.03;1.88;;;;;;;;;;5141524;27;20210;-62
2023/07/23 11:01:14;;;;;;;2.05;1.70;;;;;;;;;;5152545;27;20201;-62
2023/07/23 11:03:43;;;;;;;2.10;1.90;;;;;;;;;;5155834;27;20221;-62
2023/07/23 11:06:24;;;;;;;1.80;1.67;;;;;;;;;;5155836;27;20504;-62
2023/07/23 11:08:51;;;;;;;1.90;1.80;;;;;;;;;;5152234;27;20231;-62
2023/07/23 11:11:18;;;;;;;1.73;1.73;;;;;;;;;;5153122;27;20254;-62
2023/07/23 11:13:44;;;;;;;1.98;1.88;;;;;;;;;;5142089;27;20235;-62
2023/07/23 11:16:11;;;;;;;1.98;1.60;;;;;;;;;;5152231;27;20424;-62
2023/07/23 11:18:40;;;;;;;2.38;2.05;;;;;;;;;;5154793;27;20193;-62
2023/07/23 11:21:06;;;;;;;1.42;1.42;;;;;;;;;;5154081;27;20193;-62
2023/07/23 11:23:32;;;;;;;2.53;1.65;;;;;;;;;;5152225;27;20228;-62
2023/07/23 11:25:59;;;;;;;2.50;2.30;;;;;;;;;;5151784;27;20197;-62
2023/07/23 11:28:25;;;;;;;2.17;1.92;;;;;;;;;;5153930;27;20262;-62
2023/07/23 11:30:55;;;;;;;5.95;2.10;;;;;;;;;;5156098;27;20200;-62
2023/07/23 11:33:22;;;;;;;3.33;2.10;;;;;;;;;;5154075;27;20242;-61
2023/07/23 11:35:50;;;;;;;2.13;2.03;;;;;;;;;;5152196;27;20190;-62
2023/07/23 11:38:16;;;;;;;4.68;2.30;;;;;;;;;;5152601;27;20258;-61
2023/07/23 11:40:50;;;;;;;2.38;2.28;;;;;;;;;;5155697;27;20521;-61
2023/07/23 11:43:16;;;;;;;2.40;2.17;;;;;;;;;;5154642;27;20492;-62
2023/07/23 11:45:43;;;;;;;2.42;2.30;;;;;;;;;;5151922;27;20464;-62
2023/07/23 11:48:14;;;;;;;2.47;2.03;;;;;;;;;;5151877;27;20201;-62
2023/07/23 11:50:40;;;;;;;2.47;2.38;;;;;;;;;;5143938;27;20194;-62
2023/07/23 11:53:08;;;;;;;2.47;2.28;;;;;;;;;;5151637;27;20197;-62
2023/07/23 11:55:34;;;;;;;2.40;2.20;;;;;;;;;;5154942;27;20190;-62
2023/07/23 11:58:00;;;;;;;2.22;2.00;;;;;;;;;;5155185;27;20266;-62
2023/07/23 12:00:26;;;;;;;2.58;2.00;;;;;;;;;;5153341;27;20561;-62
2023/07/23 12:02:53;;;;;;;2.30;2.20;;;;;;;;;;5151525;27;20193;-62
2023/07/23 12:05:19;;;;;;;5.22;2.05;;;;;;;;;;5152477;27;20225;-62
2023/07/23 12:07:45;;;;;;;2.20;2.00;;;;;;;;;;5155303;27;20230;-62
2023/07/23 12:10:14;;;;;;;2.30;2.10;;;;;;;;;;5155292;27;20349;-62
2023/07/23 12:12:41;;;;;;;1.80;1.80;;;;;;;;;;5143635;27;20551;-62
2023/07/23 12:15:07;;;;;;;2.45;2.25;;;;;;;;;;5151748;27;20426;-62
2023/07/23 12:17:34;;;;;;;1.75;1.70;;;;;;;;;;5154574;27;20207;-62
2023/07/23 12:20:02;;;;;;;3.80;2.00;;;;;;;;;;5155238;27;20208;-62
2023/07/23 12:22:30;;;;;;;2.88;2.10;;;;;;;;;;5152825;27;20504;-61
2023/07/23 12:24:56;;;;;;;4.80;2.38;;;;;;;;;;5151451;27;20258;-62
2023/07/23 12:27:24;;;;;;;5.85;1.95;;;;;;;;;;5152834;27;20305;-61
2023/07/23 12:29:50;;;;;;;1.65;1.65;;;;;;;;;;5155240;27;20254;-62
2023/07/23 12:32:19;;;;;;;1.90;1.80;;;;;;;;;;5156517;27;20200;-62
2023/07/23 12:34:46;;;;;;;2.28;2.17;;;;;;;;;;5155635;27;20197;-62
2023/07/23 12:37:12;;;;;;;2.20;1.65;;;;;;;;;;5155600;27;20198;-62
2023/07/23 12:39:39;;;;;;;2.40;2.20;;;;;;;;;;5158761;27;20216;-62
2023/07/23 12:42:05;;;;;;;4.63;2.17;;;;;;;;;;5158958;27;20192;-62
2023/07/23 12:44:33;;;;;;;2.08;1.90;;;;;;;;;;5156290;27;20222;-62
2023/07/23 12:46:59;;;;;;;1.90;1.80;;;;;;;;;;5155464;27;20238;-62
2023/07/23 12:49:26;;;;;;;2.15;1.90;;;;;;;;;;5156693;27;20438;-62
2023/07/23 12:51:52;;;;;;;3.65;1.70;;;;;;;;;;5158654;27;20494;-62
2023/07/23 12:54:18;;;;;;;2.20;2.10;;;;;;;;;;5158113;27;20505;-62
2023/07/23 12:56:44;;;;;;;2.30;2.10;;;;;;;;;;5155364;27;20186;-62
2023/07/23 12:59:12;;;;;;;2.42;2.30;;;;;;;;;;5155259;27;20309;-62
2023/07/23 13:01:40;;;;;;;2.10;2.00;;;;;;;;;;5157846;27;20239;-62
2023/07/23 13:04:06;;;;;;;2.35;1.92;;;;;;;;;;5158697;27;20465;-62
2023/07/23 13:06:32;;;;;;;2.28;2.20;;;;;;;;;;5156092;27;20238;-62
2023/07/23 13:08:59;;;;;;;2.35;2.17;;;;;;;;;;5154999;27;20211;-62
2023/07/23 13:11:25;;;;;;;2.05;1.95;;;;;;;;;;5156172;27;20251;-61
2023/07/23 13:13:51;;;;;;;2.40;2.20;;;;;;;;;;5158552;27;20216;-62
2023/07/23 13:16:17;;;;;;;2.08;1.98;;;;;;;;;;5158320;27;20457;-62
2023/07/23 13:18:45;;;;;;;2.95;2.22;;;;;;;;;;5154654;27;20235;-62
2023/07/23 13:21:11;;;;;;;1.92;1.85;;;;;;;;;;5154347;27;20200;-62
2023/07/23 13:23:38;;;;;;;1.90;1.80;;;;;;;;;;5157577;27;20577;-62
2023/07/23 13:26:04;;;;;;;2.33;2.22;;;;;;;;;;5158336;27;20209;-62
2023/07/23 13:28:30;;;;;;;1.80;1.73;;;;;;;;;;5156166;27;20544;-62
2023/07/23 13:30:58;;;;;;;1.95;1.85;;;;;;;;;;5154429;27;20547;-62
2023/07/23 13:33:24;;;;;;;2.40;2.20;;;;;;;;;;5155014;27;20513;-62
2023/07/23 13:35:53;;;;;;;1.98;1.88;;;;;;;;;;5157800;27;20424;-62
2023/07/23 13:38:19;;;;;;;2.15;2.00;;;;;;;;;;5157577;27;20200;-62
2023/07/23 13:40:45;;;;;;;5.15;2.10;;;;;;;;;;5154106;27;20231;-62
2023/07/23 13:43:12;;;;;;;1.98;1.88;;;;;;;;;;5153829;27;20194;-62
2023/07/23 13:45:38;;;;;;;1.88;1.88;;;;;;;;;;5156848;27;20222;-62
2023/07/23 13:48:04;;;;;;;2.22;2.13;;;;;;;;;;5157534;27;20189;-62
2023/07/23 13:50:31;;;;;;;4.10;2.17;;;;;;;;;;5155706;27;20197;-62
2023/07/23 13:52:58;;;;;;;2.40;2.20;;;;;;;;;;5153868;27;20274;-62
2023/07/23 13:55:24;;;;;;;3.33;2.10;;;;;;;;;;5154921;27;20194;-62
2023/07/23 13:57:51;;;;;;;2.10;2.00;;;;;;;;;;5157657;27;20193;-62
2023/07/23 14:00:17;;;;;;;2.22;2.08;;;;;;;;;;5157542;27;20201;-62
2023/07/23 14:02:43;;;;;;;2.10;2.00;;;;;;;;;;5153758;27;20194;-62
2023/07/23 14:05:10;;;;;;;2.40;2.30;;;;;;;;;;5153732;27;20225;-62
2023/07/23 14:07:36;;;;;;;3.13;2.92;;;;;;;;;;5156334;27;20198;-62
2023/07/23 14:10:05;;;;;;;3.40;3.10;;;;;;;;;;5157474;27;20197;-62
2023/07/23 14:12:31;;;;;;;4.10;3.80;;;;;;;;;;5155536;27;20243;-62
2023/07/23 14:14:57;;;;;;;4.28;3.90;;;;;;;;;;5153725;27;20194;-62
2023/07/23 14:17:23;;;;;;;5.28;3.63;;;;;;;;;;5154074;27;20194;-62
2023/07/23 14:19:50;;;;;;;5.53;3.83;;;;;;;;;;5156983;27;20205;-62
2023/07/23 14:22:16;;;;;;;4.00;3.70;;;;;;;;;;5148827;27;20243;-62
2023/07/23 14:24:42;;;;;;;3.92;3.63;;;;;;;;;;5156443;27;20213;-62
2023/07/23 14:27:10;;;;;;;4.05;3.75;;;;;;;;;;5156821;27;20285;-62
2023/07/23 14:29:36;;;;;;;4.97;3.53;;;;;;;;;;5154692;27;20422;-62
2023/07/23 14:32:03;;;;;;;3.83;3.45;;;;;;;;;;5153018;27;20493;-62
2023/07/23 14:34:29;;;;;;;3.90;3.60;;;;;;;;;;5154335;27;20269;-62
2023/07/23 14:36:55;;;;;;;4.07;3.67;;;;;;;;;;5156934;27;20208;-62
2023/07/23 14:39:22;;;;;;;3.92;3.63;;;;;;;;;;5156556;27;20193;-62
2023/07/23 14:41:48;;;;;;;3.85;3.47;;;;;;;;;;5153169;27;20200;-62